Terminal Aerodrome Forecast
Issued by NWS Cheyenne, WY

Home | Current Version | Previous Version | Text Only | Print | Product List | Glossary On
Versions: 1 2 3 4 5 6 7 8 9 10 11 12 13 14 15 16 17 18 19 20 21 22 23 24 25 26 27 28 29 30 31 32 33 34 35 36 37 38 39 40 41
000
FTUS45 KCYS 182300
TAFCYS
TAF
KCYS 182328Z 1900/1924 23014G22KT P6SM SCT080
     FM190200 24010KT P6SM BKN200
     FM190400 27010KT P6SM BKN200
     FM190500 33015G22KT P6SM BKN080 OVC200
     FM190700 35014KT P6SM BKN080
     FM191700 VRB05KT P6SM VCSH BKN050=

USA.gov is the U.S. government's official web portal to all federal, state and local government web resources and services.